Time;durP1;ratioP1;P1;durP2;ratioP2;P2;SDS_P1;SDS_P2;PMS_P1;PMS_P2;Temp;Humidity;BMP_temperature;BMP_pressure;BME280_temperature;BME280_humidity;BME280_pressure;Samples;Min_cycle;Max_cycle;Signal;HPM_P1;HPM_P2
2023/03/01 00:00:39;;;;;;;19.15;6.93;;;1.10;99.90;;;;;;4968005;28;20034;-72
2023/03/01 00:03:05;;;;;;;18.60;8.57;;;1.00;99.90;;;;;;4965982;28;20038;-72
2023/03/01 00:05:31;;;;;;;18.33;7.82;;;1.10;99.90;;;;;;4967540;28;20034;-72
2023/03/01 00:07:57;;;;;;;18.13;7.13;;;1.00;99.90;;;;;;4971207;28;20498;-72
2023/03/01 00:10:23;;;;;;;16.52;6.25;;;1.00;99.90;;;;;;4972973;28;20034;-72
2023/03/01 00:12:48;;;;;;;18.98;7.28;;;1.00;99.90;;;;;;4974198;28;20058;-72
2023/03/01 00:15:14;;;;;;;17.40;7.18;;;1.10;99.90;;;;;;4962035;28;20026;-72
2023/03/01 00:17:40;;;;;;;12.15;5.60;;;1.00;99.90;;;;;;4971141;28;20109;-72
2023/03/01 00:20:09;;;;;;;12.45;5.80;;;1.00;99.90;;;;;;4966194;28;20037;-72
2023/03/01 00:22:36;;;;;;;15.97;6.83;;;1.00;99.90;;;;;;4997896;28;20057;-73
2023/03/01 00:25:01;;;;;;;12.35;5.50;;;1.10;99.90;;;;;;4966728;28;20418;-72
2023/03/01 00:27:27;;;;;;;14.60;6.25;;;1.10;99.90;;;;;;4972163;28;20121;-72
2023/03/01 00:29:53;;;;;;;13.82;5.38;;;1.00;99.90;;;;;;4970411;28;20034;-71
2023/03/01 00:32:18;;;;;;;15.13;6.07;;;1.10;99.90;;;;;;4969011;28;20513;-72
2023/03/01 00:34:53;;;;;;;10.07;4.75;;;1.10;99.90;;;;;;4965006;28;20058;-72
2023/03/01 00:37:21;;;;;;;10.88;5.38;;;1.00;99.90;;;;;;4963420;28;20031;-71
2023/03/01 00:39:47;;;;;;;14.98;5.88;;;1.00;99.90;;;;;;4967722;28;20035;-72
2023/03/01 00:42:13;;;;;;;13.50;5.55;;;1.00;99.90;;;;;;4968796;28;20496;-72
2023/03/01 00:44:38;;;;;;;10.32;5.22;;;1.00;99.90;;;;;;4966408;28;20124;-72
2023/03/01 00:47:04;;;;;;;11.25;4.95;;;0.90;99.90;;;;;;4965762;28;20034;-72
2023/03/01 00:49:29;;;;;;;15.93;6.43;;;0.80;99.90;;;;;;4971041;28;20408;-72
2023/03/01 00:51:55;;;;;;;12.85;6.13;;;0.80;99.90;;;;;;4972669;28;20041;-72
2023/03/01 00:54:21;;;;;;;14.88;5.70;;;0.80;99.90;;;;;;4969225;28;20039;-71
2023/03/01 00:56:46;;;;;;;15.23;5.07;;;0.70;99.90;;;;;;4969987;28;20114;-71
2023/03/01 00:59:12;;;;;;;12.73;5.22;;;0.70;99.90;;;;;;4968647;28;20557;-72
2023/03/01 01:01:37;;;;;;;10.48;5.25;;;0.80;99.90;;;;;;4972531;28;20035;-71
2023/03/01 01:04:09;;;;;;;11.00;5.35;;;0.80;99.90;;;;;;4969363;28;20038;-72
2023/03/01 01:06:42;;;;;;;10.35;4.70;;;0.80;99.90;;;;;;4971213;28;20181;-71
2023/03/01 01:09:09;;;;;;;12.75;4.95;;;0.80;99.90;;;;;;4974476;28;20043;-72
2023/03/01 01:11:36;;;;;;;11.90;5.00;;;0.80;99.90;;;;;;4971984;28;20051;-71
2023/03/01 01:14:02;;;;;;;9.88;5.10;;;0.80;99.90;;;;;;4969144;28;20037;-72
2023/03/01 01:16:28;;;;;;;9.73;5.05;;;0.70;99.90;;;;;;4972576;28;20050;-71
2023/03/01 01:18:55;;;;;;;11.18;5.50;;;0.70;99.90;;;;;;4969426;28;20035;-72
2023/03/01 01:21:23;;;;;;;11.10;5.53;;;0.70;99.90;;;;;;4974209;28;21150;-71
2023/03/01 01:23:49;;;;;;;11.45;4.90;;;0.70;99.90;;;;;;4968480;28;20062;-71
2023/03/01 01:26:21;;;;;;;10.93;5.05;;;0.70;99.90;;;;;;4968834;28;20058;-71
2023/03/01 01:28:47;;;;;;;10.18;4.80;;;0.70;99.90;;;;;;4970681;28;20039;-71
2023/03/01 01:31:13;;;;;;;9.63;4.95;;;0.70;99.90;;;;;;4970186;28;20467;-72
2023/03/01 01:33:39;;;;;;;9.52;4.97;;;0.70;99.90;;;;;;4970091;28;20527;-72
2023/03/01 01:36:06;;;;;;;8.75;4.55;;;0.70;99.90;;;;;;5004281;28;20042;-72
2023/03/01 01:38:31;;;;;;;10.23;4.75;;;0.60;99.90;;;;;;5000812;28;20415;-72
2023/03/01 01:40:57;;;;;;;10.45;5.28;;;0.60;99.90;;;;;;4972174;28;20027;-71
2023/03/01 01:43:30;;;;;;;7.65;4.28;;;0.50;99.90;;;;;;4988621;28;20049;-71
2023/03/01 01:46:24;;;;;;;9.00;4.63;;;0.50;99.90;;;;;;4991285;28;20121;-71
2023/03/01 01:48:57;;;;;;;9.98;5.32;;;0.50;99.90;;;;;;4986085;28;20058;-71
2023/03/01 01:51:28;;;;;;;8.93;4.82;;;0.50;99.90;;;;;;4970635;28;20447;-71
2023/03/01 01:53:59;;;;;;;10.23;4.75;;;0.40;99.90;;;;;;4971262;28;20035;-71
2023/03/01 01:56:26;;;;;;;15.57;5.90;;;0.40;99.90;;;;;;4973360;28;20034;-71
2023/03/01 01:58:53;;;;;;;14.85;5.75;;;0.30;99.90;;;;;;4974450;28;20041;-71
2023/03/01 02:01:19;;;;;;;11.10;5.15;;;0.30;99.90;;;;;;4973553;28;20045;-71
2023/03/01 02:03:46;;;;;;;12.30;5.50;;;0.20;99.90;;;;;;4991046;28;20034;-72
2023/03/01 02:06:28;;;;;;;14.57;5.90;;;0.20;99.90;;;;;;4965497;28;20054;-71
2023/03/01 02:08:57;;;;;;;12.85;6.03;;;0.20;99.90;;;;;;4954055;28;20058;-71
2023/03/01 02:11:32;;;;;;;12.50;5.35;;;0.10;99.90;;;;;;4969059;28;20042;-71
2023/03/01 02:13:57;;;;;;;12.73;5.72;;;0.10;99.90;;;;;;4970993;28;20030;-71
2023/03/01 02:16:24;;;;;;;12.25;5.13;;;0.10;99.90;;;;;;4970325;28;20037;-71
2023/03/01 02:18:50;;;;;;;11.50;5.30;;;0.10;99.90;;;;;;4969237;28;20022;-71
2023/03/01 02:21:26;;;;;;;12.82;5.82;;;0.10;99.90;;;;;;4970069;28;20026;-71
2023/03/01 02:23:54;;;;;;;14.05;6.35;;;0.10;99.90;;;;;;4952064;28;20452;-72
2023/03/01 02:26:55;;;;;;;18.40;6.22;;;0.10;99.90;;;;;;4967571;28;20375;-71
2023/03/01 02:29:23;;;;;;;16.58;7.05;;;0.20;99.90;;;;;;5003670;28;20092;-71
2023/03/01 02:31:51;;;;;;;12.73;6.05;;;0.20;99.90;;;;;;4988708;28;20152;-71
2023/03/01 02:34:19;;;;;;;15.07;6.22;;;0.10;99.90;;;;;;4988541;28;20042;-71
2023/03/01 02:37:09;;;;;;;14.07;6.15;;;0.20;99.90;;;;;;4989975;28;20092;-71
2023/03/01 02:39:41;;;;;;;15.70;6.22;;;0.20;99.90;;;;;;4983072;28;20054;-71
2023/03/01 02:42:12;;;;;;;12.95;5.55;;;0.10;99.90;;;;;;4981871;28;20037;-72
2023/03/01 02:44:37;;;;;;;;;;;0.10;99.90;;;;;;4965993;28;20776;-71
2023/03/01 02:47:05;;;;;;;11.35;5.45;;;0.10;99.90;;;;;;4966727;28;20009;-72
2023/03/01 02:49:34;;;;;;;12.02;5.80;;;0.10;99.90;;;;;;4969257;28;20038;-71
2023/03/01 02:52:18;;;;;;;14.32;5.63;;;0.10;99.90;;;;;;4967900;28;20031;-71
2023/03/01 02:54:58;;;;;;;12.35;6.03;;;0.00;99.90;;;;;;4968751;28;20038;-71
2023/03/01 02:57:27;;;;;;;15.38;6.07;;;0.00;99.90;;;;;;4968987;28;20041;-71
2023/03/01 02:59:59;;;;;;;12.25;6.15;;;0.00;99.90;;;;;;4967802;28;20050;-71
2023/03/01 03:02:37;;;;;;;13.45;6.13;;;-0.10;99.90;;;;;;4967779;28;20035;-71
2023/03/01 03:05:09;;;;;;;11.07;5.85;;;-0.10;99.90;;;;;;4968291;28;20613;-72
2023/03/01 03:07:36;;;;;;;10.43;5.13;;;-0.10;99.90;;;;;;4965665;28;20088;-72
2023/03/01 03:10:04;;;;;;;12.45;5.80;;;-0.20;99.90;;;;;;4969196;28;20039;-72
2023/03/01 03:12:30;;;;;;;9.80;5.82;;;-0.30;99.90;;;;;;4967570;28;20126;-72
2023/03/01 03:14:56;;;;;;;13.20;5.75;;;-0.30;99.90;;;;;;4969225;28;20121;-72
2023/03/01 03:17:21;;;;;;;11.48;5.85;;;-0.30;99.90;;;;;;4967733;28;20383;-72
2023/03/01 03:19:47;;;;;;;12.48;6.13;;;-0.40;99.90;;;;;;4969042;28;20661;-72
2023/03/01 03:22:13;;;;;;;12.45;5.85;;;-0.40;99.90;;;;;;4968096;28;20046;-72
2023/03/01 03:24:39;;;;;;;10.32;5.35;;;-0.40;99.90;;;;;;4966207;28;20110;-72
2023/03/01 03:27:05;;;;;;;16.70;6.30;;;-0.40;99.90;;;;;;4968264;28;20487;-72
2023/03/01 03:29:31;;;;;;;12.55;6.10;;;-0.50;99.90;;;;;;4969032;28;20121;-72
2023/03/01 03:31:57;;;;;;;12.32;5.63;;;-0.50;99.90;;;;;;4968836;28;20432;-72
2023/03/01 03:34:23;;;;;;;14.38;6.88;;;-0.60;99.90;;;;;;4966522;28;20559;-72
2023/03/01 03:36:56;;;;;;;15.55;6.00;;;-0.50;99.90;;;;;;4966996;28;20118;-72
2023/03/01 03:39:23;;;;;;;14.15;6.22;;;-0.50;99.90;;;;;;4966248;28;20039;-72
2023/03/01 03:41:48;;;;;;;12.43;6.50;;;-0.50;99.90;;;;;;4968301;28;20027;-72
2023/03/01 03:44:14;;;;;;;13.32;6.45;;;-0.50;99.90;;;;;;4967354;28;20039;-72
2023/03/01 03:46:39;;;;;;;11.77;5.80;;;-0.50;99.90;;;;;;4968370;28;20117;-71
2023/03/01 03:49:05;;;;;;;17.20;6.28;;;-0.50;99.90;;;;;;4967467;28;20058;-71
2023/03/01 03:51:31;;;;;;;14.05;6.22;;;-0.50;99.90;;;;;;4966831;28;20488;-71
2023/03/01 03:53:56;;;;;;;11.05;5.93;;;-0.50;99.90;;;;;;4968250;28;20495;-71
2023/03/01 03:56:25;;;;;;;13.50;6.80;;;-0.60;99.90;;;;;;4967230;28;20035;-72
2023/03/01 03:58:51;;;;;;;15.40;6.10;;;-0.60;99.90;;;;;;4967775;28;20027;-71
2023/03/01 04:01:17;;;;;;;16.67;6.82;;;-0.60;99.90;;;;;;4974664;28;20050;-71
2023/03/01 04:03:46;;;;;;;14.55;6.15;;;-0.60;99.90;;;;;;4971503;28;20026;-71
2023/03/01 04:06:13;;;;;;;13.90;6.32;;;-0.60;99.90;;;;;;4966876;28;20030;-71
2023/03/01 04:08:39;;;;;;;14.27;6.25;;;-0.60;99.90;;;;;;4967705;28;20039;-71
2023/03/01 04:13:50;;;;;;;14.75;6.25;;;-0.70;99.90;;;;;;4966259;28;20130;-72
2023/03/01 04:16:17;;;;;;;15.55;7.40;;;-0.70;99.90;;;;;;4969844;28;20039;-72
2023/03/01 04:18:43;;;;;;;16.15;7.03;;;-0.80;99.90;;;;;;4969484;28;20034;-72
2023/03/01 04:21:11;;;;;;;16.63;6.47;;;-0.80;99.90;;;;;;4966697;28;20031;-72
2023/03/01 04:23:36;;;;;;;13.85;7.22;;;-0.80;99.90;;;;;;4974449;28;20514;-71
2023/03/01 04:26:02;;;;;;;14.23;6.65;;;-0.70;99.90;;;;;;4966616;28;20043;-72
2023/03/01 04:28:33;;;;;;;13.90;6.50;;;-0.80;99.90;;;;;;4972972;28;20031;-71
2023/03/01 04:31:12;;;;;;;12.73;6.40;;;-0.80;99.90;;;;;;4965195;28;20071;-73
2023/03/01 04:33:42;;;;;;;15.02;6.72;;;-0.70;99.90;;;;;;4973871;28;20633;-71
2023/03/01 04:36:09;;;;;;;11.07;5.93;;;-0.70;99.90;;;;;;4964824;28;20031;-72
2023/03/01 04:38:37;;;;;;;15.75;6.43;;;-0.80;99.90;;;;;;4969784;28;20129;-71
2023/03/01 04:41:04;;;;;;;13.45;5.95;;;-0.80;99.90;;;;;;4966727;28;20045;-72
2023/03/01 04:43:29;;;;;;;15.65;6.15;;;-0.80;99.90;;;;;;4969371;28;20049;-71
2023/03/01 04:45:59;;;;;;;14.15;5.63;;;-0.90;99.90;;;;;;4970651;28;20142;-71
2023/03/01 04:48:25;;;;;;;15.55;7.47;;;-0.90;99.90;;;;;;4965495;28;20051;-71
2023/03/01 04:50:50;;;;;;;12.57;6.03;;;-1.00;99.90;;;;;;4966968;28;20034;-71
2023/03/01 04:53:18;;;;;;;10.98;5.63;;;-1.00;99.90;;;;;;4964875;28;20043;-71
2023/03/01 04:55:44;;;;;;;11.23;5.53;;;-1.00;99.90;;;;;;4967589;28;20404;-71
2023/03/01 04:58:09;;;;;;;14.05;6.50;;;-1.00;99.90;;;;;;4966280;28;20041;-71
2023/03/01 05:00:35;;;;;;;11.25;6.03;;;-1.00;99.90;;;;;;4967678;28;20042;-71
2023/03/01 05:03:00;;;;;;;13.65;7.20;;;-1.00;99.90;;;;;;4965406;28;20027;-72
2023/03/01 05:05:30;;;;;;;13.80;6.47;;;-0.90;99.90;;;;;;4965315;28;20105;-71
2023/03/01 05:07:59;;;;;;;10.68;5.60;;;-0.80;99.90;;;;;;4967348;28;20027;-72
2023/03/01 05:10:28;;;;;;;12.50;6.03;;;-0.80;99.90;;;;;;4985567;28;20045;-71
2023/03/01 05:12:54;;;;;;;13.25;5.30;;;-0.80;99.90;;;;;;4988601;28;20120;-71
2023/03/01 05:15:25;;;;;;;10.45;5.80;;;-0.80;99.90;;;;;;4984605;28;20038;-71
2023/03/01 05:17:51;;;;;;;21.85;6.43;;;-0.80;99.90;;;;;;4986136;28;20522;-71
2023/03/01 05:20:17;;;;;;;13.25;6.00;;;-0.80;99.90;;;;;;4973711;28;20045;-72
2023/03/01 05:22:43;;;;;;;13.75;7.05;;;-0.80;99.90;;;;;;4987475;28;20043;-72
2023/03/01 05:25:09;;;;;;;11.68;6.03;;;-0.90;99.90;;;;;;4987906;28;20125;-72
2023/03/01 05:27:35;;;;;;;10.88;5.78;;;-0.90;99.90;;;;;;4987889;28;20042;-71
2023/03/01 05:30:13;;;;;;;14.70;6.32;;;-0.90;99.90;;;;;;4985605;28;20030;-72
2023/03/01 05:32:43;;;;;;;15.40;6.57;;;-0.80;99.90;;;;;;4983508;28;20495;-71
2023/03/01 05:35:13;;;;;;;13.18;6.30;;;-0.80;99.90;;;;;;4970226;28;20064;-71
2023/03/01 05:37:40;;;;;;;12.23;5.53;;;-0.80;99.90;;;;;;4988351;28;20042;-70
2023/03/01 05:40:07;;;;;;;13.88;5.95;;;-0.70;99.90;;;;;;4987355;28;20178;-71
2023/03/01 05:42:36;;;;;;;11.80;6.07;;;-0.70;99.90;;;;;;4985515;28;20060;-71
2023/03/01 05:45:01;;;;;;;13.05;6.15;;;-0.80;99.90;;;;;;4985431;28;20418;-71
2023/03/01 05:47:27;;;;;;;15.02;6.85;;;-0.80;99.90;;;;;;4987577;28;20049;-71
2023/03/01 05:49:52;;;;;;;14.60;5.80;;;-0.80;99.90;;;;;;4989400;28;20107;-71
2023/03/01 05:52:18;;;;;;;12.98;6.93;;;-0.80;99.90;;;;;;4995477;28;20046;-71
2023/03/01 05:54:44;;;;;;;14.60;6.70;;;-0.80;99.90;;;;;;4992092;28;20092;-71
2023/03/01 05:57:10;;;;;;;13.07;6.20;;;-0.80;99.90;;;;;;4990455;28;20511;-70
2023/03/01 05:59:36;;;;;;;15.35;7.25;;;-0.80;99.90;;;;;;4989367;28;20555;-71
2023/03/01 06:02:02;;;;;;;16.40;6.07;;;-0.80;99.90;;;;;;4970969;28;20122;-75
2023/03/01 06:04:27;;;;;;;13.88;6.60;;;-0.80;99.90;;;;;;4993464;28;20150;-72
2023/03/01 06:06:53;;;;;;;13.82;6.60;;;-0.80;99.90;;;;;;4997644;28;20030;-71
2023/03/01 06:09:18;;;;;;;16.02;7.60;;;-0.80;99.90;;;;;;4979188;28;20038;-71
2023/03/01 06:11:44;;;;;;;15.27;6.75;;;-0.80;99.90;;;;;;4978138;28;20038;-72
2023/03/01 06:14:10;;;;;;;14.27;7.15;;;-0.80;99.90;;;;;;4990338;28;20076;-71
2023/03/01 06:16:35;;;;;;;16.05;6.97;;;-0.80;99.90;;;;;;4990424;28;20513;-71
2023/03/01 06:19:01;;;;;;;14.07;6.20;;;-0.80;99.90;;;;;;4972700;28;20038;-73
2023/03/01 06:21:27;;;;;;;11.15;5.35;;;-0.80;99.90;;;;;;4970594;28;20058;-70
2023/03/01 06:23:55;;;;;;;10.60;5.15;;;-0.80;99.90;;;;;;4990446;28;20031;-71
2023/03/01 06:26:21;;;;;;;10.32;5.10;;;-0.80;99.90;;;;;;4987787;28;20041;-71
2023/03/01 06:28:46;;;;;;;9.68;5.03;;;-0.80;99.90;;;;;;4990256;28;20042;-71
2023/03/01 06:31:12;;;;;;;12.07;5.25;;;-0.80;99.90;;;;;;4988952;28;20065;-71
2023/03/01 06:33:37;;;;;;;12.45;5.78;;;-0.80;99.90;;;;;;4991920;28;20061;-70
2023/03/01 06:36:03;;;;;;;12.73;6.15;;;-0.80;99.90;;;;;;4989335;28;20037;-71
2023/03/01 06:38:29;;;;;;;12.05;5.50;;;-0.70;99.90;;;;;;4989936;28;20450;-71
2023/03/01 06:40:56;;;;;;;11.88;5.07;;;-0.70;99.90;;;;;;4988240;28;20026;-71
2023/03/01 06:43:23;;;;;;;13.93;5.30;;;-0.70;99.90;;;;;;4970258;28;20038;-71
2023/03/01 06:45:48;;;;;;;12.70;5.25;;;-0.70;99.90;;;;;;4990302;28;20042;-71
2023/03/01 06:48:14;;;;;;;15.82;7.13;;;-0.70;99.90;;;;;;4973603;28;20031;-71
2023/03/01 06:50:40;;;;;;;17.90;6.90;;;-0.60;99.90;;;;;;4994386;28;20763;-70
2023/03/01 06:53:06;;;;;;;15.00;7.13;;;-0.70;99.90;;;;;;5000616;28;20026;-70
2023/03/01 06:55:31;;;;;;;15.48;6.70;;;-0.70;99.90;;;;;;4977901;28;20108;-70
2023/03/01 06:57:58;;;;;;;15.20;6.95;;;-0.60;99.90;;;;;;4995699;28;20026;-71
2023/03/01 07:00:25;;;;;;;12.73;5.95;;;-0.60;99.90;;;;;;4996559;28;20104;-70
2023/03/01 07:02:51;;;;;;;12.60;5.78;;;-0.60;99.90;;;;;;4987878;28;20121;-73
2023/03/01 07:05:16;;;;;;;14.52;6.05;;;-0.60;99.90;;;;;;4991833;28;20117;-70
2023/03/01 07:07:42;;;;;;;12.38;6.45;;;-0.60;99.90;;;;;;4988717;28;20034;-71
2023/03/01 07:10:09;;;;;;;12.77;6.00;;;-0.60;99.90;;;;;;5000414;28;20018;-70
2023/03/01 07:12:34;;;;;;;11.52;5.15;;;-0.70;99.90;;;;;;4998696;28;20037;-72
2023/03/01 07:15:00;;;;;;;11.70;5.13;;;-0.60;99.90;;;;;;4989734;28;20693;-70
2023/03/01 07:17:25;;;;;;;12.35;5.00;;;-0.60;99.90;;;;;;4970263;28;20043;-70
2023/03/01 07:19:51;;;;;;;9.30;4.28;;;-0.60;99.90;;;;;;4996472;28;20038;-71
2023/03/01 07:22:16;;;;;;;11.18;4.50;;;-0.60;99.90;;;;;;4988096;28;20554;-71
2023/03/01 07:24:43;;;;;;;13.43;5.35;;;-0.50;99.90;;;;;;4979913;28;20054;-72
2023/03/01 07:27:09;;;;;;;15.55;5.45;;;-0.50;99.90;;;;;;4991478;28;20054;-71
2023/03/01 07:29:36;;;;;;;10.85;5.35;;;-0.50;99.90;;;;;;4986961;28;20053;-71
2023/03/01 07:32:02;;;;;;;11.05;4.90;;;-0.50;99.90;;;;;;4987120;28;20038;-70
2023/03/01 07:34:28;;;;;;;11.70;5.28;;;-0.50;99.90;;;;;;4987493;28;20038;-71
2023/03/01 07:36:53;;;;;;;19.48;7.00;;;-0.40;99.90;;;;;;4970778;28;20030;-71
2023/03/01 07:39:19;;;;;;;19.52;7.30;;;-0.40;99.90;;;;;;4969410;28;20375;-70
2023/03/01 07:41:44;;;;;;;16.23;7.00;;;-0.30;99.90;;;;;;4978806;28;20511;-71
2023/03/01 07:44:10;;;;;;;17.60;7.05;;;-0.30;99.90;;;;;;4968881;28;20037;-71
2023/03/01 07:46:36;;;;;;;15.98;6.28;;;-0.20;99.90;;;;;;4987658;28;20045;-71
2023/03/01 07:49:02;;;;;;;17.23;6.97;;;-0.10;99.90;;;;;;4987767;28;20037;-71
2023/03/01 07:51:27;;;;;;;15.02;6.43;;;0.00;99.90;;;;;;4983869;28;20060;-72
2023/03/01 07:53:53;;;;;;;14.95;6.13;;;0.10;99.90;;;;;;4970376;28;20042;-71
2023/03/01 07:56:19;;;;;;;13.43;6.43;;;0.30;99.90;;;;;;4969324;28;21264;-71
2023/03/01 07:58:45;;;;;;;12.23;5.40;;;0.70;99.90;;;;;;4988330;28;20041;-72
2023/03/01 08:01:16;;;;;;;15.23;6.25;;;0.80;99.90;;;;;;4986008;28;20080;-70
2023/03/01 08:03:43;;;;;;;13.35;5.45;;;0.90;99.90;;;;;;4987283;28;20069;-72
2023/03/01 08:06:10;;;;;;;10.90;5.30;;;1.10;99.90;;;;;;4993367;28;20628;-70
2023/03/01 08:08:36;;;;;;;14.18;5.35;;;1.40;99.90;;;;;;4995802;28;20023;-71
2023/03/01 08:11:04;;;;;;;9.18;4.53;;;1.70;99.90;;;;;;4984779;28;20089;-71
2023/03/01 08:13:30;;;;;;;14.32;5.38;;;1.90;99.90;;;;;;4989348;28;20033;-69
2023/03/01 08:16:02;;;;;;;9.20;3.78;;;2.10;99.90;;;;;;4991735;28;20033;-71
2023/03/01 08:18:27;;;;;;;10.45;4.05;;;2.40;99.90;;;;;;4990173;28;21665;-72
2023/03/01 08:20:53;;;;;;;10.32;4.95;;;2.60;99.90;;;;;;4988918;28;20050;-71
2023/03/01 08:23:18;;;;;;;12.15;4.45;;;2.80;99.90;;;;;;4983671;28;20065;-72
2023/03/01 08:25:44;;;;;;;9.10;4.00;;;3.00;99.90;;;;;;4986472;28;20372;-73
2023/03/01 08:28:09;;;;;;;12.57;3.25;;;3.20;99.90;;;;;;4983353;28;20085;-71
2023/03/01 08:30:35;;;;;;;8.23;3.03;;;3.30;99.90;;;;;;4984593;28;20057;-72
2023/03/01 08:33:01;;;;;;;9.32;4.10;;;3.50;99.90;;;;;;4983765;28;20027;-72
2023/03/01 08:35:26;;;;;;;7.20;3.05;;;3.50;99.90;;;;;;4966349;28;20034;-72
2023/03/01 08:37:52;;;;;;;5.45;2.38;;;3.60;99.90;;;;;;4985579;28;20499;-71
2023/03/01 08:40:17;;;;;;;7.95;2.92;;;3.80;99.90;;;;;;4982748;28;20042;-71
2023/03/01 08:42:43;;;;;;;4.90;2.60;;;4.00;99.90;;;;;;4986532;28;20033;-71
2023/03/01 08:45:10;;;;;;;4.25;2.42;;;4.00;99.90;;;;;;4985797;28;20034;-72
2023/03/01 08:47:36;;;;;;;4.35;2.38;;;4.00;99.90;;;;;;4986112;28;20069;-71
2023/03/01 08:50:01;;;;;;;6.13;2.22;;;4.00;99.90;;;;;;4984022;28;20034;-71
2023/03/01 08:52:27;;;;;;;7.82;3.10;;;4.10;99.90;;;;;;4998773;28;20093;-71
2023/03/01 08:54:53;;;;;;;6.28;3.05;;;4.10;99.90;;;;;;4993728;28;20042;-71
2023/03/01 08:57:19;;;;;;;5.95;2.88;;;4.10;99.90;;;;;;4983246;28;20042;-72
2023/03/01 08:59:44;;;;;;;5.85;2.75;;;4.20;99.90;;;;;;4984749;28;20076;-72
2023/03/01 09:02:15;;;;;;;6.53;2.53;;;4.20;99.90;;;;;;4983763;28;20526;-72
2023/03/01 09:04:41;;;;;;;7.07;3.08;;;4.20;99.90;;;;;;4986166;28;20042;-72
2023/03/01 09:07:07;;;;;;;5.05;2.58;;;4.30;99.90;;;;;;4983694;28;20023;-72
2023/03/01 09:09:33;;;;;;;6.18;2.80;;;4.40;99.90;;;;;;4968960;28;20042;-71
2023/03/01 09:11:58;;;;;;;7.53;2.95;;;4.50;99.90;;;;;;4984010;28;20129;-72
2023/03/01 09:14:24;;;;;;;6.38;2.42;;;4.50;99.90;;;;;;5006504;28;20121;-73
2023/03/01 09:16:49;;;;;;;4.45;2.33;;;4.50;99.90;;;;;;4987711;28;20022;-72
2023/03/01 09:19:18;;;;;;;6.80;2.45;;;4.60;99.90;;;;;;4989423;28;20034;-71
2023/03/01 09:21:51;;;;;;;5.97;2.70;;;4.60;99.90;;;;;;4978286;28;20034;-72
2023/03/01 09:24:19;;;;;;;8.88;2.55;;;4.60;99.90;;;;;;5005278;28;20069;-71
2023/03/01 09:26:46;;;;;;;4.88;2.00;;;4.60;99.90;;;;;;5002577;28;20034;-72
2023/03/01 09:29:12;;;;;;;3.67;2.30;;;4.60;99.90;;;;;;4972647;28;20038;-72
2023/03/01 09:31:38;;;;;;;5.28;2.40;;;4.70;99.90;;;;;;4993539;28;20038;-72
2023/03/01 09:34:04;;;;;;;5.60;2.88;;;4.70;99.90;;;;;;4975223;28;20452;-72
2023/03/01 09:36:30;;;;;;;7.10;3.03;;;4.80;99.90;;;;;;4976139;28;20045;-72
2023/03/01 09:38:58;;;;;;;5.75;2.65;;;4.80;99.90;;;;;;4989927;28;20402;-72
2023/03/01 09:42:15;;;;;;;7.15;2.90;;;4.80;99.90;;;;;;4992069;28;20469;-72
2023/03/01 09:45:16;;;;;;;8.00;3.47;;;4.80;99.90;;;;;;4909924;29;20040;-72
2023/03/01 09:47:41;;;;;;;13.10;3.72;;;4.90;99.90;;;;;;4910964;29;20032;-71
2023/03/01 09:50:17;;;;;;;5.15;2.30;;;5.00;99.90;;;;;;4964132;28;20053;-71
2023/03/01 09:52:50;;;;;;;6.68;3.13;;;5.00;99.90;;;;;;4992880;28;20049;-72
2023/03/01 09:55:30;;;;;;;6.35;2.97;;;5.00;99.90;;;;;;4995758;28;20038;-72
2023/03/01 09:58:20;;;;;;;5.35;2.60;;;5.10;99.90;;;;;;4986823;28;20780;-72
2023/03/01 10:00:49;;;;;;;5.43;2.40;;;5.20;99.90;;;;;;4970276;28;20398;-72
2023/03/01 10:03:16;;;;;;;5.40;2.67;;;5.30;99.90;;;;;;4987875;28;20469;-72
2023/03/01 10:05:46;;;;;;;5.90;2.67;;;5.30;99.90;;;;;;4975331;28;20045;-73
2023/03/01 10:08:35;;;;;;;5.13;2.28;;;5.40;99.90;;;;;;4988234;28;20053;-72
2023/03/01 10:11:03;;;;;;;5.53;1.83;;;5.50;99.90;;;;;;4987732;28;20030;-72
2023/03/01 10:13:45;;;;;;;5.47;1.70;;;5.50;99.90;;;;;;4992138;28;20029;-72
2023/03/01 10:16:42;;;;;;;4.47;2.08;;;5.60;99.90;;;;;;4990830;28;20039;-73
2023/03/01 10:19:30;;;;;;;5.60;1.67;;;5.60;99.90;;;;;;5006701;28;20061;-72
2023/03/01 10:22:05;;;;;;;2.60;1.50;;;5.70;99.90;;;;;;4991723;28;20042;-72
2023/03/01 10:24:35;;;;;;;2.80;1.65;;;5.70;99.90;;;;;;4990953;28;20034;-73
2023/03/01 10:27:51;;;;;;;4.15;1.23;;;5.80;99.80;;;;;;5001933;28;20052;-73
2023/03/01 10:30:39;;;;;;;5.90;1.38;;;5.80;99.90;;;;;;4986183;28;20034;-73
2023/03/01 10:33:16;;;;;;;3.40;1.38;;;5.80;98.90;;;;;;5011724;28;20130;-72
2023/03/01 10:35:42;;;;;;;2.92;1.38;;;5.80;99.10;;;;;;5001910;28;20125;-72
2023/03/01 10:38:10;;;;;;;7.03;1.63;;;5.80;99.10;;;;;;4988885;28;20460;-72
2023/03/01 10:41:09;;;;;;;3.50;1.90;;;5.80;99.50;;;;;;4991827;28;20037;-72
2023/03/01 10:43:48;;;;;;;4.40;1.85;;;5.80;99.30;;;;;;4990508;28;20042;-72
2023/03/01 10:46:33;;;;;;;5.95;2.08;;;5.90;99.30;;;;;;4992556;28;20494;-73
2023/03/01 10:49:20;;;;;;;5.32;1.63;;;6.00;99.20;;;;;;4983420;28;20065;-71
2023/03/01 10:51:48;;;;;;;3.35;1.42;;;6.00;99.40;;;;;;4990742;28;20046;-71
2023/03/01 10:54:20;;;;;;;3.00;1.50;;;6.10;99.10;;;;;;4997201;28;20296;-71
2023/03/01 10:56:48;;;;;;;5.43;1.88;;;6.10;98.80;;;;;;5008534;28;20066;-71
2023/03/01 10:59:30;;;;;;;4.60;2.13;;;6.10;98.20;;;;;;4978192;28;20130;-71
2023/03/01 11:02:04;;;;;;;7.50;2.53;;;6.10;99.00;;;;;;4989209;28;20042;-72
2023/03/01 11:04:29;;;;;;;5.53;2.00;;;6.10;99.00;;;;;;4988213;28;20046;-72
2023/03/01 11:07:00;;;;;;;3.55;1.85;;;6.20;98.50;;;;;;4990617;28;20540;-71
2023/03/01 11:09:32;;;;;;;5.18;1.92;;;6.20;98.40;;;;;;5002175;28;20034;-73
2023/03/01 11:12:00;;;;;;;4.43;1.90;;;6.10;98.40;;;;;;4972785;28;20092;-72
2023/03/01 11:14:30;;;;;;;5.38;2.10;;;6.10;98.70;;;;;;4987594;28;20406;-72
2023/03/01 11:17:03;;;;;;;3.63;1.70;;;6.10;98.50;;;;;;4990031;28;20031;-71
2023/03/01 11:19:29;;;;;;;5.90;1.73;;;6.10;98.70;;;;;;4969310;28;20039;-72
2023/03/01 11:22:12;;;;;;;4.80;1.90;;;6.10;98.80;;;;;;4990752;28;20038;-72
2023/03/01 11:24:47;;;;;;;5.95;2.90;;;6.10;98.80;;;;;;4986131;28;20038;-72
2023/03/01 11:27:32;;;;;;;7.30;1.85;;;6.20;98.70;;;;;;4968724;28;20042;-73
2023/03/01 11:30:13;;;;;;;3.97;1.90;;;6.10;98.80;;;;;;4984875;28;20037;-73
2023/03/01 11:32:50;;;;;;;;;;;6.10;98.80;;;;;;4989995;28;20065;-72
2023/03/01 11:35:28;;;;;;;4.32;1.85;;;6.20;98.80;;;;;;4984260;28;19945;-72
2023/03/01 11:38:15;;;;;;;4.60;1.88;;;6.20;98.60;;;;;;4969998;28;20036;-73
2023/03/01 11:41:13;;;;;;;7.03;3.05;;;6.20;98.70;;;;;;4973084;28;20408;-72
2023/03/01 11:43:51;;;;;;;7.80;3.72;;;6.20;98.70;;;;;;4968522;28;20037;-73
2023/03/01 11:46:31;;;;;;;4.68;2.10;;;6.20;98.60;;;;;;4983150;28;20049;-73
2023/03/01 11:49:27;;;;;;;6.05;1.90;;;6.30;98.40;;;;;;4987374;28;20441;-71
2023/03/01 11:52:02;;;;;;;3.88;1.80;;;6.30;98.40;;;;;;5002412;28;20142;-72
2023/03/01 11:54:27;;;;;;;6.97;2.25;;;6.40;98.50;;;;;;4977601;28;20030;-71
2023/03/01 11:57:18;;;;;;;4.40;1.80;;;6.40;97.90;;;;;;4969558;28;20808;-72
2023/03/01 11:59:49;;;;;;;3.28;1.33;;;6.40;97.90;;;;;;4987335;28;20034;-74
2023/03/01 12:02:45;;;;;;;4.45;1.70;;;6.40;97.30;;;;;;4975590;28;20035;-71
2023/03/01 12:05:21;;;;;;;5.18;2.10;;;6.40;96.90;;;;;;4967446;28;20419;-72
2023/03/01 12:07:55;;;;;;;3.75;1.83;;;6.40;96.60;;;;;;4967700;28;20053;-72
2023/03/01 12:10:24;;;;;;;3.90;1.90;;;6.50;96.50;;;;;;4966633;28;20062;-72
2023/03/01 12:12:56;;;;;;;4.60;1.90;;;6.50;96.40;;;;;;4965272;28;20046;-73
2023/03/01 12:15:39;;;;;;;4.78;1.77;;;6.60;96.50;;;;;;4964192;28;20837;-73
2023/03/01 12:18:27;;;;;;;7.63;2.58;;;6.50;96.90;;;;;;4964260;28;20027;-73
2023/03/01 12:21:13;;;;;;;5.57;1.65;;;6.60;97.40;;;;;;4955160;28;20088;-73
2023/03/01 12:24:12;;;;;;;2.80;1.33;;;6.70;96.40;;;;;;4964403;28;20057;-72
2023/03/01 12:26:44;;;;;;;3.35;1.55;;;6.70;96.20;;;;;;4960144;28;20496;-72
2023/03/01 12:29:21;;;;;;;3.72;2.28;;;6.70;96.10;;;;;;4993108;28;20503;-72
2023/03/01 12:32:22;;;;;;;6.72;2.10;;;6.70;96.40;;;;;;4964251;28;20042;-73
2023/03/01 12:34:51;;;;;;;6.57;2.10;;;6.70;96.70;;;;;;4972883;28;20026;-72
2023/03/01 12:37:55;;;;;;;2.95;1.17;;;6.70;96.30;;;;;;4965888;28;20388;-72
2023/03/01 12:40:33;;;;;;;2.83;1.33;;;6.80;96.10;;;;;;4957810;28;20043;-73
2023/03/01 12:43:23;;;;;;;4.68;2.00;;;6.80;95.90;;;;;;4964591;28;20054;-72
2023/03/01 12:46:04;;;;;;;6.30;2.67;;;6.80;96.00;;;;;;4979183;28;20065;-72
2023/03/01 12:48:38;;;;;;;4.70;1.75;;;6.80;95.70;;;;;;4963978;28;20278;-73
2023/03/01 12:51:13;;;;;;;3.53;1.42;;;6.90;95.20;;;;;;4962499;28;20116;-72
2023/03/01 12:53:46;;;;;;;3.75;1.80;;;7.00;94.50;;;;;;4968362;28;20031;-73
2023/03/01 12:56:16;;;;;;;6.57;1.55;;;7.00;93.50;;;;;;4971282;28;20047;-72
2023/03/01 12:59:14;;;;;;;5.13;2.03;;;7.00;94.50;;;;;;4973495;28;20189;-74
2023/03/01 13:01:49;;;;;;;7.55;1.83;;;7.00;94.80;;;;;;4968665;28;20030;-72
2023/03/01 13:04:14;;;;;;;3.33;1.45;;;7.10;95.30;;;;;;4972477;28;20031;-73
2023/03/01 13:07:05;;;;;;;4.40;2.08;;;7.20;95.10;;;;;;4969397;28;20053;-71